sensor_id;sensor_type;location;lat;lon;timestamp;pressure;altitude;pressure_sealevel;temperature;humidity
596;BME280;19946;49.306;11.350;2023-03-19T00:02:36;96053.78;;;6.93;100.00
596;BME280;19946;49.306;11.350;2023-03-19T00:05:36;96063.63;;;6.77;100.00
596;BME280;19946;49.306;11.350;2023-03-19T00:08:36;96090.78;;;6.92;100.00
596;BME280;19946;49.306;11.350;2023-03-19T00:11:37;96076.38;;;6.78;100.00
596;BME280;19946;49.306;11.350;2023-03-19T00:14:38;96056.47;;;6.47;100.00
596;BME280;19946;49.306;11.350;2023-03-19T00:17:39;96068.59;;;6.45;100.00
596;BME280;19946;49.306;11.350;2023-03-19T00:20:39;96069.78;;;6.52;100.00
596;BME280;19946;49.306;11.350;2023-03-19T00:23:39;96036.66;;;6.25;100.00
596;BME280;19946;49.306;11.350;2023-03-19T00:26:40;96081.94;;;6.50;100.00
596;BME280;19946;49.306;11.350;2023-03-19T00:29:40;96068.22;;;6.38;100.00
596;BME280;19946;49.306;11.350;2023-03-19T00:32:40;96067.47;;;6.49;100.00
596;BME280;19946;49.306;11.350;2023-03-19T00:35:41;96044.44;;;6.81;100.00
596;BME280;19946;49.306;11.350;2023-03-19T00:38:42;96043.38;;;7.17;100.00
596;BME280;19946;49.306;11.350;2023-03-19T00:41:42;96062.06;;;7.84;100.00
596;BME280;19946;49.306;11.350;2023-03-19T00:44:49;96089.44;;;8.39;100.00
596;BME280;19946;49.306;11.350;2023-03-19T00:47:49;96098.88;;;8.18;100.00
596;BME280;19946;49.306;11.350;2023-03-19T00:50:50;96086.72;;;8.09;100.00
596;BME280;19946;49.306;11.350;2023-03-19T00:53:51;96097.34;;;7.84;100.00
596;BME280;19946;49.306;11.350;2023-03-19T00:56:52;96051.16;;;7.49;100.00
596;BME280;19946;49.306;11.350;2023-03-19T00:59:52;96087.94;;;7.51;100.00
596;BME280;19946;49.306;11.350;2023-03-19T01:02:52;96092.78;;;7.22;100.00
596;BME280;19946;49.306;11.350;2023-03-19T01:05:53;96085.97;;;7.10;100.00
596;BME280;19946;49.306;11.350;2023-03-19T01:08:53;96077.31;;;6.88;100.00
596;BME280;19946;49.306;11.350;2023-03-19T01:11:53;96103.47;;;6.71;100.00
596;BME280;19946;49.306;11.350;2023-03-19T01:14:54;96075.94;;;6.27;100.00
596;BME280;19946;49.306;11.350;2023-03-19T01:17:54;96066.00;;;5.99;100.00
596;BME280;19946;49.306;11.350;2023-03-19T01:20:55;96107.56;;;6.16;100.00
596;BME280;19946;49.306;11.350;2023-03-19T01:23:57;96107.44;;;6.18;100.00
596;BME280;19946;49.306;11.350;2023-03-19T01:26:58;96101.50;;;5.94;100.00
596;BME280;19946;49.306;11.350;2023-03-19T01:30:06;96107.03;;;5.64;100.00
596;BME280;19946;49.306;11.350;2023-03-19T01:33:25;96075.91;;;4.83;100.00
596;BME280;19946;49.306;11.350;2023-03-19T01:36:31;96049.75;;;4.65;100.00
596;BME280;19946;49.306;11.350;2023-03-19T01:39:36;96097.63;;;5.02;100.00
596;BME280;19946;49.306;11.350;2023-03-19T01:42:51;96101.44;;;4.97;100.00
596;BME280;19946;49.306;11.350;2023-03-19T01:46:31;96094.97;;;4.91;100.00
596;BME280;19946;49.306;11.350;2023-03-19T01:49:53;96099.09;;;4.81;100.00
596;BME280;19946;49.306;11.350;2023-03-19T01:52:55;96117.66;;;4.85;100.00
596;BME280;19946;49.306;11.350;2023-03-19T01:56:11;96128.03;;;4.96;100.00
596;BME280;19946;49.306;11.350;2023-03-19T01:59:54;96131.72;;;4.92;100.00
596;BME280;19946;49.306;11.350;2023-03-19T02:02:59;96141.16;;;4.91;100.00
596;BME280;19946;49.306;11.350;2023-03-19T02:06:19;96105.22;;;4.66;100.00
596;BME280;19946;49.306;11.350;2023-03-19T02:09:21;96126.19;;;4.72;100.00
596;BME280;19946;49.306;11.350;2023-03-19T02:12:22;96139.19;;;4.82;100.00
596;BME280;19946;49.306;11.350;2023-03-19T02:15:23;96111.81;;;4.70;100.00
596;BME280;19946;49.306;11.350;2023-03-19T02:18:23;96141.66;;;4.84;100.00
596;BME280;19946;49.306;11.350;2023-03-19T02:21:24;96102.34;;;4.45;100.00
596;BME280;19946;49.306;11.350;2023-03-19T02:24:31;96131.41;;;4.71;100.00
596;BME280;19946;49.306;11.350;2023-03-19T02:27:37;96127.28;;;4.68;100.00
596;BME280;19946;49.306;11.350;2023-03-19T02:30:38;96091.28;;;4.32;100.00
596;BME280;19946;49.306;11.350;2023-03-19T02:33:42;96102.84;;;4.37;100.00
596;BME280;19946;49.306;11.350;2023-03-19T02:36:48;96135.06;;;4.67;100.00
596;BME280;19946;49.306;11.350;2023-03-19T02:39:56;96122.34;;;4.65;100.00
596;BME280;19946;49.306;11.350;2023-03-19T02:42:58;96120.44;;;4.82;100.00
596;BME280;19946;49.306;11.350;2023-03-19T02:46:00;96132.00;;;4.87;100.00
596;BME280;19946;49.306;11.350;2023-03-19T02:49:00;96133.16;;;4.83;100.00
596;BME280;19946;49.306;11.350;2023-03-19T02:52:01;96124.94;;;4.78;100.00
596;BME280;19946;49.306;11.350;2023-03-19T02:55:01;96111.81;;;4.70;100.00
596;BME280;19946;49.306;11.350;2023-03-19T02:58:02;96088.22;;;4.52;100.00
596;BME280;19946;49.306;11.350;2023-03-19T03:01:03;96128.75;;;4.85;100.00
596;BME280;19946;49.306;11.350;2023-03-19T03:04:04;96112.44;;;4.73;100.00
596;BME280;19946;49.306;11.350;2023-03-19T03:07:05;96088.72;;;4.70;100.00
596;BME280;19946;49.306;11.350;2023-03-19T03:10:06;96111.09;;;4.93;100.00
596;BME280;19946;49.306;11.350;2023-03-19T03:13:07;96078.56;;;4.81;100.00
596;BME280;19946;49.306;11.350;2023-03-19T03:16:08;96119.47;;;5.21;100.00
596;BME280;19946;49.306;11.350;2023-03-19T03:19:09;96110.16;;;5.43;100.00
596;BME280;19946;49.306;11.350;2023-03-19T03:22:10;96098.78;;;5.47;100.00
596;BME280;19946;49.306;11.350;2023-03-19T03:25:11;96108.44;;;5.31;100.00
596;BME280;19946;49.306;11.350;2023-03-19T03:28:12;96110.75;;;4.98;100.00
596;BME280;19946;49.306;11.350;2023-03-19T03:31:12;96126.03;;;4.49;100.00
596;BME280;19946;49.306;11.350;2023-03-19T03:34:13;96136.69;;;4.55;100.00
596;BME280;19946;49.306;11.350;2023-03-19T03:37:13;96091.16;;;4.21;100.00
596;BME280;19946;49.306;11.350;2023-03-19T03:40:14;96107.66;;;4.29;100.00
596;BME280;19946;49.306;11.350;2023-03-19T03:43:15;96135.56;;;4.47;100.00
596;BME280;19946;49.306;11.350;2023-03-19T03:46:15;96105.09;;;4.29;100.00
596;BME280;19946;49.306;11.350;2023-03-19T03:49:16;96126.84;;;4.36;100.00
596;BME280;19946;49.306;11.350;2023-03-19T03:52:16;96103.66;;;4.25;100.00
596;BME280;19946;49.306;11.350;2023-03-19T03:55:17;96131.47;;;4.44;100.00
596;BME280;19946;49.306;11.350;2023-03-19T03:58:17;96110.44;;;4.39;100.00
596;BME280;19946;49.306;11.350;2023-03-19T04:01:18;96145.75;;;4.61;100.00
596;BME280;19946;49.306;11.350;2023-03-19T04:04:23;96151.84;;;4.33;100.00
596;BME280;19946;49.306;11.350;2023-03-19T04:07:23;96160.38;;;4.46;100.00
596;BME280;19946;49.306;11.350;2023-03-19T04:10:28;96144.47;;;4.28;100.00
596;BME280;19946;49.306;11.350;2023-03-19T04:13:29;96110.97;;;4.04;100.00
596;BME280;19946;49.306;11.350;2023-03-19T04:16:35;96141.69;;;4.19;100.00
596;BME280;19946;49.306;11.350;2023-03-19T04:19:36;96132.41;;;4.03;100.00
596;BME280;19946;49.306;11.350;2023-03-19T04:22:37;96160.44;;;4.19;100.00
596;BME280;19946;49.306;11.350;2023-03-19T04:25:38;96173.75;;;4.24;100.00
596;BME280;19946;49.306;11.350;2023-03-19T04:28:40;96157.56;;;4.24;100.00
596;BME280;19946;49.306;11.350;2023-03-19T04:31:40;96159.34;;;4.36;100.00
596;BME280;19946;49.306;11.350;2023-03-19T04:34:41;96140.94;;;4.17;100.00
596;BME280;19946;49.306;11.350;2023-03-19T04:37:42;96165.09;;;4.39;100.00
596;BME280;19946;49.306;11.350;2023-03-19T04:40:48;96188.53;;;4.60;100.00
596;BME280;19946;49.306;11.350;2023-03-19T04:43:48;96138.13;;;4.47;100.00
596;BME280;19946;49.306;11.350;2023-03-19T04:46:49;96141.75;;;4.69;100.00
596;BME280;19946;49.306;11.350;2023-03-19T04:49:51;96171.13;;;4.91;100.00
596;BME280;19946;49.306;11.350;2023-03-19T04:52:53;96177.59;;;4.96;100.00
596;BME280;19946;49.306;11.350;2023-03-19T04:55:54;96172.75;;;4.92;100.00
596;BME280;19946;49.306;11.350;2023-03-19T04:58:54;96176.66;;;4.85;100.00
596;BME280;19946;49.306;11.350;2023-03-19T05:01:55;96149.41;;;4.44;100.00
596;BME280;19946;49.306;11.350;2023-03-19T05:04:57;96165.34;;;4.62;100.00
596;BME280;19946;49.306;11.350;2023-03-19T05:07:57;96174.47;;;4.66;100.00
596;BME280;19946;49.306;11.350;2023-03-19T05:10:59;96149.13;;;4.49;100.00
596;BME280;19946;49.306;11.350;2023-03-19T05:14:04;96188.56;;;4.73;100.00
596;BME280;19946;49.306;11.350;2023-03-19T05:17:25;96150.97;;;4.59;100.00
596;BME280;19946;49.306;11.350;2023-03-19T05:20:43;96190.63;;;4.93;100.00
596;BME280;19946;49.306;11.350;2023-03-19T05:23:51;96205.69;;;4.98;100.00
596;BME280;19946;49.306;11.350;2023-03-19T05:26:54;96182.19;;;4.91;100.00
596;BME280;19946;49.306;11.350;2023-03-19T05:30:03;96151.50;;;4.77;100.00
596;BME280;19946;49.306;11.350;2023-03-19T05:33:22;96185.78;;;5.01;100.00
596;BME280;19946;49.306;11.350;2023-03-19T05:36:23;96196.25;;;5.11;100.00
596;BME280;19946;49.306;11.350;2023-03-19T05:39:30;96194.31;;;5.02;100.00
596;BME280;19946;49.306;11.350;2023-03-19T05:42:35;96205.63;;;5.25;100.00
596;BME280;19946;49.306;11.350;2023-03-19T05:45:37;96202.03;;;5.27;100.00
596;BME280;19946;49.306;11.350;2023-03-19T05:48:46;96198.22;;;5.07;100.00
596;BME280;19946;49.306;11.350;2023-03-19T05:51:47;96183.31;;;5.00;100.00
596;BME280;19946;49.306;11.350;2023-03-19T05:54:47;96217.81;;;5.21;100.00
596;BME280;19946;49.306;11.350;2023-03-19T05:58:06;96208.59;;;5.19;100.00
596;BME280;19946;49.306;11.350;2023-03-19T06:01:07;96215.69;;;5.15;100.00
596;BME280;19946;49.306;11.350;2023-03-19T06:04:08;96244.03;;;5.26;100.00
596;BME280;19946;49.306;11.350;2023-03-19T06:07:08;96215.34;;;5.20;100.00
596;BME280;19946;49.306;11.350;2023-03-19T06:10:10;96212.00;;;5.19;100.00
596;BME280;19946;49.306;11.350;2023-03-19T06:13:11;96232.84;;;5.27;100.00
596;BME280;19946;49.306;11.350;2023-03-19T06:16:18;96239.72;;;5.27;100.00
596;BME280;19946;49.306;11.350;2023-03-19T06:19:25;96272.59;;;5.60;100.00
596;BME280;19946;49.306;11.350;2023-03-19T06:22:25;96270.72;;;5.49;100.00
596;BME280;19946;49.306;11.350;2023-03-19T06:25:26;96275.97;;;5.60;100.00
596;BME280;19946;49.306;11.350;2023-03-19T06:28:26;96262.69;;;5.66;100.00
596;BME280;19946;49.306;11.350;2023-03-19T06:31:26;96268.53;;;5.81;100.00
596;BME280;19946;49.306;11.350;2023-03-19T06:34:31;96288.06;;;6.09;100.00
596;BME280;19946;49.306;11.350;2023-03-19T06:37:32;96267.91;;;6.03;100.00
596;BME280;19946;49.306;11.350;2023-03-19T06:40:32;96263.78;;;6.13;100.00
596;BME280;19946;49.306;11.350;2023-03-19T06:43:33;96298.06;;;6.37;100.00
596;BME280;19946;49.306;11.350;2023-03-19T06:46:36;96292.13;;;6.24;100.00
596;BME280;19946;49.306;11.350;2023-03-19T06:49:36;96274.34;;;6.21;100.00
596;BME280;19946;49.306;11.350;2023-03-19T06:52:37;96287.88;;;6.36;100.00
596;BME280;19946;49.306;11.350;2023-03-19T06:55:37;96304.91;;;6.49;100.00
596;BME280;19946;49.306;11.350;2023-03-19T06:58:38;96293.25;;;6.56;100.00
596;BME280;19946;49.306;11.350;2023-03-19T07:01:40;96328.69;;;6.77;100.00
596;BME280;19946;49.306;11.350;2023-03-19T07:04:40;96328.84;;;6.86;100.00
596;BME280;19946;49.306;11.350;2023-03-19T07:07:40;96341.22;;;7.05;100.00
596;BME280;19946;49.306;11.350;2023-03-19T07:10:41;96338.25;;;7.22;100.00
596;BME280;19946;49.306;11.350;2023-03-19T07:13:41;96322.13;;;7.31;100.00
596;BME280;19946;49.306;11.350;2023-03-19T07:16:41;96324.28;;;7.60;100.00
596;BME280;19946;49.306;11.350;2023-03-19T07:19:42;96358.06;;;8.01;100.00
596;BME280;19946;49.306;11.350;2023-03-19T07:22:42;96357.50;;;8.09;100.00
596;BME280;19946;49.306;11.350;2023-03-19T07:25:43;96343.09;;;8.18;100.00
596;BME280;19946;49.306;11.350;2023-03-19T07:28:43;96341.22;;;8.31;100.00
596;BME280;19946;49.306;11.350;2023-03-19T07:31:43;96357.38;;;8.55;100.00
596;BME280;19946;49.306;11.350;2023-03-19T07:34:44;96368.75;;;8.64;100.00
596;BME280;19946;49.306;11.350;2023-03-19T07:37:44;96366.84;;;8.77;100.00
596;BME280;19946;49.306;11.350;2023-03-19T07:40:45;96350.53;;;8.76;100.00
596;BME280;19946;49.306;11.350;2023-03-19T07:43:45;96354.28;;;8.84;100.00
596;BME280;19946;49.306;11.350;2023-03-19T07:46:45;96336.97;;;9.06;100.00
596;BME280;19946;49.306;11.350;2023-03-19T07:49:46;96368.75;;;9.18;100.00
596;BME280;19946;49.306;11.350;2023-03-19T07:52:47;96378.47;;;9.46;100.00
596;BME280;19946;49.306;11.350;2023-03-19T07:55:47;96369.19;;;9.23;100.00
596;BME280;19946;49.306;11.350;2023-03-19T07:58:48;96331.00;;;8.95;100.00
596;BME280;19946;49.306;11.350;2023-03-19T08:01:48;96334.69;;;9.13;100.00
596;BME280;19946;49.306;11.350;2023-03-19T08:04:48;96387.75;;;9.49;100.00
596;BME280;19946;49.306;11.350;2023-03-19T08:07:49;96347.66;;;9.02;100.00
596;BME280;19946;49.306;11.350;2023-03-19T08:10:52;96378.50;;;9.14;100.00
596;BME280;19946;49.306;11.350;2023-03-19T08:13:53;96368.69;;;9.29;100.00
596;BME280;19946;49.306;11.350;2023-03-19T08:16:53;96365.66;;;9.24;100.00
596;BME280;19946;49.306;11.350;2023-03-19T08:19:53;96392.38;;;9.34;100.00
596;BME280;19946;49.306;11.350;2023-03-19T08:22:54;96372.19;;;9.39;100.00
596;BME280;19946;49.306;11.350;2023-03-19T08:25:55;96395.13;;;9.74;100.00
596;BME280;19946;49.306;11.350;2023-03-19T08:28:56;96393.31;;;9.86;100.00
596;BME280;19946;49.306;11.350;2023-03-19T08:31:56;96365.81;;;9.64;100.00
596;BME280;19946;49.306;11.350;2023-03-19T08:34:57;96378.38;;;9.69;100.00
596;BME280;19946;49.306;11.350;2023-03-19T08:37:58;96369.84;;;9.78;100.00
596;BME280;19946;49.306;11.350;2023-03-19T08:40:58;96399.91;;;9.37;100.00
596;BME280;19946;49.306;11.350;2023-03-19T08:44:01;96387.22;;;9.34;100.00
596;BME280;19946;49.306;11.350;2023-03-19T08:47:02;96392.81;;;9.50;100.00
596;BME280;19946;49.306;11.350;2023-03-19T08:50:03;96410.09;;;9.92;100.00
596;BME280;19946;49.306;11.350;2023-03-19T08:53:04;96373.44;;;9.66;100.00
596;BME280;19946;49.306;11.350;2023-03-19T08:56:06;96416.63;;;9.75;100.00
596;BME280;19946;49.306;11.350;2023-03-19T08:59:06;96385.28;;;9.47;100.00
596;BME280;19946;49.306;11.350;2023-03-19T09:02:09;96426.91;;;9.65;100.00
596;BME280;19946;49.306;11.350;2023-03-19T09:05:10;96413.72;;;9.47;100.00
596;BME280;19946;49.306;11.350;2023-03-19T09:08:11;96390.31;;;9.28;100.00
596;BME280;19946;49.306;11.350;2023-03-19T09:11:12;96419.59;;;9.49;100.00
596;BME280;19946;49.306;11.350;2023-03-19T09:14:14;96396.31;;;9.29;100.00
596;BME280;19946;49.306;11.350;2023-03-19T09:17:19;96436.13;;;9.58;100.00
596;BME280;19946;49.306;11.350;2023-03-19T09:20:20;96420.41;;;9.50;100.00
596;BME280;19946;49.306;11.350;2023-03-19T09:23:21;96429.81;;;9.51;100.00
596;BME280;19946;49.306;11.350;2023-03-19T09:26:21;96436.13;;;9.58;100.00
596;BME280;19946;49.306;11.350;2023-03-19T09:29:21;96437.41;;;9.52;100.00
596;BME280;19946;49.306;11.350;2023-03-19T09:32:22;96420.91;;;9.44;100.00
596;BME280;19946;49.306;11.350;2023-03-19T09:35:22;96438.66;;;9.37;100.00
596;BME280;19946;49.306;11.350;2023-03-19T09:43:49;96450.25;;;9.75;100.00
596;BME280;19946;49.306;11.350;2023-03-19T09:46:57;96446.06;;;9.63;100.00
596;BME280;19946;49.306;11.350;2023-03-19T09:50:08;96441.75;;;9.20;100.00
596;BME280;19946;49.306;11.350;2023-03-19T09:53:18;96444.41;;;9.41;100.00
596;BME280;19946;49.306;11.350;2023-03-19T09:56:23;96452.50;;;9.47;100.00
596;BME280;19946;49.306;11.350;2023-03-19T09:59:26;96449.06;;;9.15;100.00
596;BME280;19946;49.306;11.350;2023-03-19T10:02:40;96433.16;;;8.65;100.00
596;BME280;19946;49.306;11.350;2023-03-19T10:05:50;96420.28;;;8.32;100.00
596;BME280;19946;49.306;11.350;2023-03-19T10:15:29;96472.13;;;8.51;100.00
596;BME280;19946;49.306;11.350;2023-03-19T10:18:32;96467.19;;;8.37;100.00
596;BME280;19946;49.306;11.350;2023-03-19T10:21:36;96449.41;;;8.10;100.00
596;BME280;19946;49.306;11.350;2023-03-19T10:24:41;96428.84;;;7.86;100.00
596;BME280;19946;49.306;11.350;2023-03-19T10:27:45;96458.19;;;8.07;100.00
596;BME280;19946;49.306;11.350;2023-03-19T10:30:54;96443.06;;;8.03;100.00
596;BME280;19946;49.306;11.350;2023-03-19T10:37:28;96428.03;;;8.32;100.00
596;BME280;19946;49.306;11.350;2023-03-19T10:40:38;96413.59;;;8.63;100.00
596;BME280;19946;49.306;11.350;2023-03-19T10:43:53;96405.59;;;8.55;100.00
596;BME280;19946;49.306;11.350;2023-03-19T10:47:07;96426.81;;;8.69;100.00
596;BME280;19946;49.306;11.350;2023-03-19T10:50:22;96408.53;;;8.61;100.00
596;BME280;19946;49.306;11.350;2023-03-19T10:53:36;96376.88;;;8.48;100.00
596;BME280;19946;49.306;11.350;2023-03-19T10:56:45;96412.88;;;8.61;100.00
596;BME280;19946;49.306;11.350;2023-03-19T10:59:45;96393.50;;;8.44;100.00
596;BME280;19946;49.306;11.350;2023-03-19T11:02:48;96397.97;;;8.64;100.00
596;BME280;19946;49.306;11.350;2023-03-19T11:06:02;96409.22;;;8.74;100.00
596;BME280;19946;49.306;11.350;2023-03-19T11:12:16;96396.91;;;8.67;100.00
596;BME280;19946;49.306;11.350;2023-03-19T11:15:22;96404.16;;;8.84;100.00
596;BME280;19946;49.306;11.350;2023-03-19T11:18:34;96403.72;;;8.68;100.00
596;BME280;19946;49.306;11.350;2023-03-19T11:21:35;96376.84;;;8.59;100.00
596;BME280;19946;49.306;11.350;2023-03-19T11:24:40;96410.69;;;8.99;100.00
596;BME280;19946;49.306;11.350;2023-03-19T11:27:42;96381.97;;;8.93;100.00
596;BME280;19946;49.306;11.350;2023-03-19T11:31:02;96397.56;;;9.34;100.00
596;BME280;19946;49.306;11.350;2023-03-19T11:34:40;96393.56;;;9.30;100.00
596;BME280;19946;49.306;11.350;2023-03-19T11:41:11;96373.13;;;9.80;100.00
596;BME280;19946;49.306;11.350;2023-03-19T11:44:25;96359.22;;;10.22;100.00
596;BME280;19946;49.306;11.350;2023-03-19T11:47:39;96341.50;;;10.18;100.00
596;BME280;19946;49.306;11.350;2023-03-19T11:50:56;96358.19;;;10.35;100.00
596;BME280;19946;49.306;11.350;2023-03-19T11:54:15;96376.50;;;10.52;100.00
596;BME280;19946;49.306;11.350;2023-03-19T11:57:54;96367.53;;;10.56;100.00
596;BME280;19946;49.306;11.350;2023-03-19T12:01:24;96354.47;;;10.28;100.00
596;BME280;19946;49.306;11.350;2023-03-19T12:04:30;96332.00;;;10.28;100.00
596;BME280;19946;49.306;11.350;2023-03-19T12:07:54;96362.91;;;10.30;100.00
596;BME280;19946;49.306;11.350;2023-03-19T12:11:22;96341.41;;;10.08;100.00
596;BME280;19946;49.306;11.350;2023-03-19T12:21:19;96345.59;;;10.60;100.00
596;BME280;19946;49.306;11.350;2023-03-19T12:28:16;96321.00;;;10.36;100.00
596;BME280;19946;49.306;11.350;2023-03-19T12:31:21;96335.69;;;10.75;100.00
596;BME280;19946;49.306;11.350;2023-03-19T12:34:45;96320.97;;;10.76;100.00
596;BME280;19946;49.306;11.350;2023-03-19T12:38:02;96341.13;;;10.82;100.00
596;BME280;19946;49.306;11.350;2023-03-19T12:41:15;96331.31;;;10.66;100.00
596;BME280;19946;49.306;11.350;2023-03-19T12:47:25;96301.50;;;10.81;100.00
596;BME280;19946;49.306;11.350;2023-03-19T12:50:30;96306.69;;;10.91;100.00
596;BME280;19946;49.306;11.350;2023-03-19T12:53:54;96311.72;;;11.31;100.00
596;BME280;19946;49.306;11.350;2023-03-19T12:57:00;96313.63;;;11.10;100.00
596;BME280;19946;49.306;11.350;2023-03-19T13:00:26;96317.03;;;10.91;100.00
596;BME280;19946;49.306;11.350;2023-03-19T13:03:34;96317.16;;;10.89;100.00
596;BME280;19946;49.306;11.350;2023-03-19T13:06:51;96319.63;;;10.91;100.00
596;BME280;19946;49.306;11.350;2023-03-19T13:10:06;96289.09;;;11.14;100.00
596;BME280;19946;49.306;11.350;2023-03-19T13:13:39;96310.50;;;11.35;100.00
596;BME280;19946;49.306;11.350;2023-03-19T13:16:49;96287.47;;;11.69;100.00
596;BME280;19946;49.306;11.350;2023-03-19T13:19:53;96312.00;;;12.40;100.00
596;BME280;19946;49.306;11.350;2023-03-19T13:22:58;96314.59;;;12.40;100.00
596;BME280;19946;49.306;11.350;2023-03-19T13:26:03;96301.00;;;12.47;100.00
596;BME280;19946;49.306;11.350;2023-03-19T13:29:08;96306.88;;;12.49;100.00
596;BME280;19946;49.306;11.350;2023-03-19T13:32:33;96278.47;;;12.47;100.00
596;BME280;19946;49.306;11.350;2023-03-19T13:35:36;96304.38;;;12.57;100.00
596;BME280;19946;49.306;11.350;2023-03-19T13:38:42;96299.47;;;12.26;100.00
596;BME280;19946;49.306;11.350;2023-03-19T13:41:52;96281.06;;;12.47;100.00
596;BME280;19946;49.306;11.350;2023-03-19T13:45:00;96290.00;;;12.80;100.00
596;BME280;19946;49.306;11.350;2023-03-19T13:51:28;96274.41;;;12.62;100.00
596;BME280;19946;49.306;11.350;2023-03-19T13:54:37;96248.03;;;12.39;100.00
596;BME280;19946;49.306;11.350;2023-03-19T13:57:38;96294.94;;;12.56;100.00
596;BME280;19946;49.306;11.350;2023-03-19T14:00:54;96282.47;;;12.41;100.00
596;BME280;19946;49.306;11.350;2023-03-19T14:04:35;96291.59;;;12.46;100.00
596;BME280;19946;49.306;11.350;2023-03-19T14:07:38;96297.03;;;12.52;100.00
596;BME280;19946;49.306;11.350;2023-03-19T14:10:46;96244.53;;;12.76;100.00
596;BME280;19946;49.306;11.350;2023-03-19T14:13:48;96265.38;;;12.84;100.00
596;BME280;19946;49.306;11.350;2023-03-19T14:16:52;96278.50;;;13.00;100.00
596;BME280;19946;49.306;11.350;2023-03-19T14:19:53;96267.19;;;12.56;100.00
596;BME280;19946;49.306;11.350;2023-03-19T14:23:10;96274.91;;;12.66;100.00
596;BME280;19946;49.306;11.350;2023-03-19T14:26:18;96259.28;;;12.75;100.00
596;BME280;19946;49.306;11.350;2023-03-19T14:29:21;96259.53;;;12.55;100.00
596;BME280;19946;49.306;11.350;2023-03-19T14:32:31;96231.16;;;12.71;100.00
596;BME280;19946;49.306;11.350;2023-03-19T14:35:40;96228.03;;;12.85;100.00
596;BME280;19946;49.306;11.350;2023-03-19T14:38:50;96245.25;;;13.04;100.00
596;BME280;19946;49.306;11.350;2023-03-19T14:42:00;96243.16;;;13.07;100.00
596;BME280;19946;49.306;11.350;2023-03-19T14:45:38;96256.81;;;12.92;100.00
596;BME280;19946;49.306;11.350;2023-03-19T14:52:19;96281.59;;;12.51;100.00
596;BME280;19946;49.306;11.350;2023-03-19T14:55:21;96260.44;;;12.18;100.00
596;BME280;19946;49.306;11.350;2023-03-19T14:58:21;96251.06;;;12.07;100.00
596;BME280;19946;49.306;11.350;2023-03-19T15:01:23;96253.03;;;11.96;100.00
596;BME280;19946;49.306;11.350;2023-03-19T15:04:26;96278.53;;;12.10;100.00
596;BME280;19946;49.306;11.350;2023-03-19T15:07:32;96259.72;;;11.98;100.00
596;BME280;19946;49.306;11.350;2023-03-19T15:10:47;96238.97;;;11.98;100.00
596;BME280;19946;49.306;11.350;2023-03-19T15:17:19;96278.75;;;12.17;100.00
596;BME280;19946;49.306;11.350;2023-03-19T15:20:21;96274.38;;;12.17;100.00
596;BME280;19946;49.306;11.350;2023-03-19T15:23:26;96253.94;;;12.04;100.00
596;BME280;19946;49.306;11.350;2023-03-19T15:26:31;96272.75;;;12.16;100.00
596;BME280;19946;49.306;11.350;2023-03-19T15:29:33;96259.34;;;12.21;100.00
596;BME280;19946;49.306;11.350;2023-03-19T15:32:38;96252.22;;;12.23;100.00
596;BME280;19946;49.306;11.350;2023-03-19T15:35:38;96264.97;;;12.43;100.00
596;BME280;19946;49.306;11.350;2023-03-19T15:38:44;96244.00;;;12.27;100.00
596;BME280;19946;49.306;11.350;2023-03-19T15:41:47;96212.75;;;11.92;100.00
596;BME280;19946;49.306;11.350;2023-03-19T15:44:52;96234.44;;;12.00;100.00
596;BME280;19946;49.306;11.350;2023-03-19T15:48:21;96256.41;;;12.06;100.00
596;BME280;19946;49.306;11.350;2023-03-19T15:51:25;96240.19;;;11.94;100.00
596;BME280;19946;49.306;11.350;2023-03-19T15:54:26;96207.00;;;11.51;100.00
596;BME280;19946;49.306;11.350;2023-03-19T15:57:27;96237.56;;;11.57;100.00
596;BME280;19946;49.306;11.350;2023-03-19T16:00:27;96248.88;;;11.66;100.00
596;BME280;19946;49.306;11.350;2023-03-19T16:03:33;96218.63;;;11.47;100.00
596;BME280;19946;49.306;11.350;2023-03-19T16:06:37;96238.22;;;11.59;100.00
596;BME280;19946;49.306;11.350;2023-03-19T16:09:38;96243.59;;;11.48;100.00
596;BME280;19946;49.306;11.350;2023-03-19T16:12:39;96226.72;;;11.25;100.00
596;BME280;19946;49.306;11.350;2023-03-19T16:15:44;96261.19;;;11.54;100.00
596;BME280;19946;49.306;11.350;2023-03-19T16:18:54;96259.13;;;11.58;100.00
596;BME280;19946;49.306;11.350;2023-03-19T16:21:55;96242.78;;;11.38;100.00
596;BME280;19946;49.306;11.350;2023-03-19T16:24:57;96267.75;;;11.49;100.00
596;BME280;19946;49.306;11.350;2023-03-19T16:27:58;96238.59;;;11.27;100.00
596;BME280;19946;49.306;11.350;2023-03-19T16:30:58;96227.97;;;11.11;100.00
596;BME280;19946;49.306;11.350;2023-03-19T16:33:59;96272.41;;;11.26;100.00
596;BME280;19946;49.306;11.350;2023-03-19T16:36:59;96269.56;;;11.29;100.00
596;BME280;19946;49.306;11.350;2023-03-19T16:43:31;96251.19;;;11.03;100.00
596;BME280;19946;49.306;11.350;2023-03-19T16:46:33;96275.44;;;11.12;100.00
596;BME280;19946;49.306;11.350;2023-03-19T16:49:33;96267.81;;;10.91;100.00
596;BME280;19946;49.306;11.350;2023-03-19T16:52:34;96250.47;;;10.82;100.00
596;BME280;19946;49.306;11.350;2023-03-19T16:55:35;96288.25;;;10.94;100.00
596;BME280;19946;49.306;11.350;2023-03-19T16:58:38;96295.31;;;10.82;100.00
596;BME280;19946;49.306;11.350;2023-03-19T17:01:42;96300.91;;;10.68;100.00
596;BME280;19946;49.306;11.350;2023-03-19T17:04:43;96306.59;;;10.52;100.00
596;BME280;19946;49.306;11.350;2023-03-19T17:07:43;96294.19;;;10.37;100.00
596;BME280;19946;49.306;11.350;2023-03-19T17:10:45;96287.16;;;10.18;100.00
596;BME280;19946;49.306;11.350;2023-03-19T17:13:48;96301.13;;;10.06;100.00
596;BME280;19946;49.306;11.350;2023-03-19T17:16:48;96317.44;;;10.06;100.00
596;BME280;19946;49.306;11.350;2023-03-19T17:19:53;96294.16;;;9.76;100.00